Terminal Aerodrome Forecast
Issued by NWS

Home | Current Version | Previous Version | Text Only | Print | Product List | Glossary On
Versions: 1 2 3 4 5 6 7 8 9 10 11 12 13 14 15 16 17 18 19 20 21 22
000
FTUS46 KOTX 191140
TAFSFF
TAF
KSFF 191140Z 1912/2012 19008KT P6SM VCSH BKN040 BKN080 OVC100
     FM191900 20005KT P6SM SCT025 BKN120 BKN200
     FM200700 VRB03KT 6SM BR VCFG SCT002 BKN025=

USA.gov is the U.S. government's official web portal to all federal, state and local government web resources and services.